createdAt,value
2022-08-17T00:04:20.141Z,89.22
2022-08-17T00:09:23.447Z,89.67
2022-08-17T00:14:26.658Z,90.24
2022-08-17T00:19:30.068Z,91.61
2022-08-17T00:24:33.329Z,92.48
2022-08-17T00:29:36.588Z,92.91
2022-08-17T00:34:39.908Z,92.87
2022-08-17T00:39:43.378Z,92.82
2022-08-17T00:44:46.828Z,92.93
2022-08-17T00:49:50.039Z,92.82
2022-08-17T00:54:55.502Z,92.96
2022-08-17T01:00:05.520Z,93.88
2022-08-17T01:05:15.719Z,95.58
2022-08-17T01:11:00.084Z,96.13
2022-08-17T01:15:54.448Z,96.11
2022-08-17T01:21:01.819Z,95.38
2022-08-17T01:26:06.544Z,94.86
2022-08-17T01:31:10.794Z,94.70
2022-08-17T01:36:14.411Z,94.38
2022-08-17T01:41:19.267Z,94.47
2022-08-17T01:46:32.298Z,94.76
2022-08-17T01:51:35.917Z,95.01
2022-08-17T01:56:43.324Z,94.86
2022-08-17T02:01:50.734Z,95.00
2022-08-17T02:06:54.685Z,94.90
2022-08-17T02:12:00.218Z,94.58
2022-08-17T02:17:23.602Z,94.51
2022-08-17T02:22:28.958Z,94.50
2022-08-17T02:27:32.475Z,94.33
2022-08-17T02:32:35.990Z,94.17
2022-08-17T02:37:42.287Z,94.14
2022-08-17T02:42:46.343Z,94.19
2022-08-17T02:47:50.553Z,94.28
2022-08-17T02:53:01.404Z,94.27
2022-08-17T02:58:07.449Z,94.39
2022-08-17T03:03:13.982Z,94.43
2022-08-17T03:08:18.314Z,94.28
2022-08-17T03:13:22.033Z,94.38
2022-08-17T03:18:26.474Z,94.34
2022-08-17T03:23:32.221Z,94.24
2022-08-17T03:28:35.756Z,94.60
2022-08-17T03:33:39.065Z,94.79
2022-08-17T03:38:42.379Z,94.92
2022-08-17T03:43:46.303Z,94.97
2022-08-17T03:49:08.352Z,95.24
2022-08-17T03:54:41.260Z,95.32
2022-08-17T03:59:45.360Z,95.42
2022-08-17T04:04:52.561Z,95.76
2022-08-17T04:09:58.396Z,95.95
2022-08-17T04:15:02.116Z,95.69
2022-08-17T04:20:06.460Z,94.31
2022-08-17T04:25:17.084Z,91.97
2022-08-17T04:30:21.330Z,88.35
2022-08-17T04:35:29.045Z,86.33
2022-08-17T04:40:52.015Z,84.48
2022-08-17T04:46:01.061Z,82.55
2022-08-17T04:51:10.084Z,78.50
2022-08-17T04:56:16.648Z,76.35
2022-08-17T05:01:24.534Z,72.61
2022-08-17T05:06:29.357Z,69.22
2022-08-17T05:11:32.678Z,68.11
2022-08-17T05:16:35.990Z,65.22
2022-08-17T05:21:39.493Z,62.85
2022-08-17T05:26:43.119Z,60.92
2022-08-17T05:31:46.626Z,58.13
2022-08-17T05:36:49.944Z,56.79
2022-08-17T05:41:53.560Z,55.93
2022-08-17T05:46:59.792Z,54.70
2022-08-17T05:52:11.546Z,53.97
2022-08-17T05:57:53.752Z,52.77
2022-08-17T06:03:20.221Z,51.72
2022-08-17T06:08:23.636Z,50.28
2022-08-17T06:13:57.565Z,48.24
2022-08-17T06:19:06.650Z,47.27
2022-08-17T06:24:29.086Z,45.40
2022-08-17T06:29:46.203Z,43.45
2022-08-17T06:34:50.032Z,41.61
2022-08-17T06:40:02.697Z,40.93
2022-08-17T06:45:20.468Z,40.67
2022-08-17T06:51:32.119Z,40.01
2022-08-17T06:56:53.060Z,39.48
2022-08-17T07:02:05.980Z,38.33
2022-08-17T07:07:30.178Z,37.15
2022-08-17T07:12:39.577Z,36.19
2022-08-17T07:17:47.563Z,35.55
2022-08-17T07:23:25.170Z,34.33
2022-08-17T07:28:35.202Z,33.05
2022-08-17T07:34:17.052Z,31.10
2022-08-17T07:39:36.612Z,30.26
2022-08-17T07:45:43.955Z,29.22
2022-08-17T07:51:15.326Z,28.45
2022-08-17T07:57:14.650Z,28.20
2022-08-17T08:02:45.529Z,28.02
2022-08-17T08:07:56.193Z,27.94
2022-08-17T08:13:34.206Z,27.96
2022-08-17T08:18:55.361Z,27.18
2022-08-17T08:24:38.696Z,27.77
2022-08-17T08:30:00.752Z,26.69
2022-08-17T08:35:22.998Z,26.14
2022-08-17T08:40:54.990Z,26.43
2022-08-17T08:46:23.998Z,26.34
2022-08-17T08:52:05.928Z,26.37
2022-08-17T08:57:34.345Z,25.42
2022-08-17T09:03:09.054Z,24.92
2022-08-17T09:08:24.821Z,24.26
2022-08-17T09:13:46.055Z,24.19
2022-08-17T09:19:05.744Z,24.38
2022-08-17T09:24:23.744Z,25.10
2022-08-17T09:35:36.701Z,23.99
2022-08-17T09:41:03.535Z,24.03
2022-08-17T09:46:20.619Z,24.52
2022-08-17T09:51:37.037Z,25.30
2022-08-17T09:57:00.821Z,26.54
2022-08-17T10:03:02.251Z,30.78
2022-08-17T10:08:37.358Z,33.92
2022-08-17T10:14:36.535Z,35.38
2022-08-17T10:20:02.347Z,36.30
2022-08-17T10:25:53.599Z,36.66
2022-08-17T10:37:06.525Z,38.30
2022-08-17T10:42:56.941Z,37.83
2022-08-17T10:48:28.512Z,37.99
2022-08-17T10:53:52.208Z,37.53
2022-08-17T10:58:59.480Z,38.33
2022-08-17T11:04:46.696Z,38.78
2022-08-17T11:10:24.672Z,39.29
2022-08-17T11:16:30.490Z,39.26
2022-08-17T11:22:12.774Z,39.97
2022-08-17T11:27:28.272Z,39.88
2022-08-17T11:32:47.443Z,38.90
2022-08-17T11:39:05.981Z,40.22
2022-08-17T11:44:24.706Z,39.79
2022-08-17T11:49:58.738Z,40.67
2022-08-17T11:55:17.995Z,41.24
2022-08-17T12:00:52.266Z,40.91
2022-08-17T12:06:30.202Z,40.77
2022-08-17T12:12:11.090Z,41.00
2022-08-17T12:17:11.922Z,40.29
2022-08-17T12:22:53.635Z,40.42
2022-08-17T12:28:05.980Z,41.08
2022-08-17T12:33:24.986Z,40.81
2022-08-17T12:38:33.993Z,40.39
2022-08-17T12:43:37.597Z,39.83
2022-08-17T12:48:58.765Z,40.28
2022-08-17T12:54:03.479Z,40.73
2022-08-17T12:59:11.094Z,40.72
2022-08-17T13:04:16.804Z,41.67
2022-08-17T13:09:35.732Z,42.89
2022-08-17T13:14:46.924Z,43.65
2022-08-17T13:19:51.531Z,44.17
2022-08-17T13:24:58.563Z,44.69
2022-08-17T13:30:12.509Z,44.61
2022-08-17T13:35:29.748Z,44.02
2022-08-17T13:40:49.268Z,43.90
2022-08-17T13:45:53.379Z,43.52
2022-08-17T13:50:56.625Z,43.44
2022-08-17T13:56:03.795Z,43.27
2022-08-17T14:01:32.270Z,42.34
2022-08-17T14:06:53.701Z,42.50
2022-08-17T14:11:58.985Z,42.54
2022-08-17T14:17:02.409Z,42.74
2022-08-17T14:22:11.842Z,42.84
2022-08-17T14:27:17.932Z,42.57
2022-08-17T14:32:28.411Z,42.39
2022-08-17T14:37:34.721Z,42.40
2022-08-17T14:42:41.643Z,42.00
2022-08-17T14:47:45.216Z,42.29
2022-08-17T14:52:49.344Z,42.11
2022-08-17T14:57:53.523Z,42.54
2022-08-17T15:03:00.243Z,42.41
2022-08-17T15:08:04.806Z,42.17
2022-08-17T15:13:24.496Z,42.92
2022-08-17T15:18:27.908Z,42.93
2022-08-17T15:23:32.343Z,43.14
2022-08-17T15:28:35.764Z,43.53
2022-08-17T15:33:39.379Z,43.97
2022-08-17T15:38:44.558Z,44.38
2022-08-17T15:43:52.655Z,44.43
2022-08-17T15:49:00.368Z,44.72
2022-08-17T15:54:18.854Z,45.05
2022-08-17T15:59:26.444Z,45.15
2022-08-17T16:04:31.673Z,44.80
2022-08-17T16:09:35.737Z,45.14
2022-08-17T16:14:40.064Z,45.19
2022-08-17T16:19:43.689Z,45.18
2022-08-17T16:24:56.779Z,45.21
2022-08-17T16:30:01.416Z,45.34
2022-08-17T16:35:08.476Z,45.59
2022-08-17T16:40:14.939Z,46.18
2022-08-17T16:45:28.101Z,46.97
2022-08-17T16:50:32.838Z,47.73
2022-08-17T16:55:36.971Z,48.55
2022-08-17T17:00:42.528Z,49.39
2022-08-17T17:05:57.823Z,49.97
2022-08-17T17:11:11.276Z,50.71
2022-08-17T17:16:21.921Z,52.01
2022-08-17T17:21:36.225Z,52.65
2022-08-17T17:26:39.648Z,53.69
2022-08-17T17:32:17.426Z,54.07
2022-08-17T17:37:27.836Z,54.59
2022-08-17T17:42:32.996Z,55.25
2022-08-17T17:47:37.684Z,55.72
2022-08-17T17:53:02.651Z,56.19
2022-08-17T17:58:12.106Z,56.93
2022-08-17T18:03:45.116Z,57.42
2022-08-17T18:09:06.550Z,58.45
2022-08-17T18:14:15.133Z,59.16
2022-08-17T18:19:20.886Z,59.60
2022-08-17T18:24:37.963Z,60.10
2022-08-17T18:29:46.050Z,60.33
2022-08-17T18:35:15.431Z,60.95
2022-08-17T18:40:19.808Z,61.29
2022-08-17T18:45:34.445Z,61.30
2022-08-17T18:50:41.607Z,61.37
2022-08-17T18:55:46.462Z,61.16
2022-08-17T19:00:52.425Z,61.43
2022-08-17T19:06:25.377Z,61.40
2022-08-17T19:11:34.826Z,61.67
2022-08-17T19:16:50.733Z,62.08
2022-08-17T19:22:06.639Z,62.35
2022-08-17T19:27:46.416Z,63.38
2022-08-17T19:32:54.292Z,64.64
2022-08-17T19:38:13.557Z,65.82
2022-08-17T19:43:40.325Z,66.98
2022-08-17T19:48:54.218Z,67.71
2022-08-17T19:54:15.772Z,68.68
2022-08-17T20:00:14.109Z,69.14
2022-08-17T20:05:29.763Z,69.60
2022-08-17T20:10:54.653Z,69.99
2022-08-17T20:15:59.022Z,70.11
2022-08-17T20:21:20.041Z,70.21
2022-08-17T20:26:29.287Z,70.63
2022-08-17T20:31:56.368Z,70.81
2022-08-17T20:37:13.400Z,71.26
2022-08-17T20:42:22.950Z,71.81
2022-08-17T20:47:33.209Z,72.65
2022-08-17T20:52:45.444Z,73.65
2022-08-17T20:57:49.296Z,74.37
2022-08-17T21:03:50.672Z,75.19
2022-08-17T21:09:13.407Z,75.88
2022-08-17T21:14:25.728Z,75.98
2022-08-17T21:20:00.506Z,76.06
2022-08-17T21:25:22.940Z,75.81
2022-08-17T21:30:28.192Z,75.78
2022-08-17T21:35:47.564Z,76.24
2022-08-17T21:40:53.758Z,77.61
2022-08-17T21:46:08.735Z,78.32
2022-08-17T21:51:19.327Z,78.93
2022-08-17T21:56:39.058Z,79.93
2022-08-17T22:01:43.459Z,80.32
2022-08-17T22:06:52.354Z,81.00
2022-08-17T22:12:03.401Z,81.10
2022-08-17T22:17:16.121Z,81.00
2022-08-17T22:22:34.383Z,81.58
2022-08-17T22:28:09.138Z,81.95
2022-08-17T22:33:40.605Z,82.32
2022-08-17T22:38:44.016Z,82.54
2022-08-17T22:43:48.557Z,82.81
2022-08-17T22:48:57.845Z,83.06
2022-08-17T22:54:21.907Z,82.81
2022-08-17T22:59:46.742Z,83.22
2022-08-17T23:04:54.434Z,83.89
2022-08-17T23:09:57.747Z,84.52
2022-08-17T23:15:02.299Z,84.95
2022-08-17T23:20:09.370Z,85.21
2022-08-17T23:25:18.122Z,85.62
2022-08-17T23:30:25.836Z,85.75
2022-08-17T23:35:39.335Z,85.67
2022-08-17T23:40:44.233Z,85.85
2022-08-17T23:45:47.551Z,85.99
2022-08-17T23:50:52.086Z,86.59
2022-08-17T23:56:02.722Z,87.00
